Time,TemperatureF,DewpointF,PressureIn,WindDirection,WindDirectionDegrees,WindSpeedMPH,WindSpeedGustMPH,Humidity,HourlyPrecipIn,Conditions,Clouds,dailyrainin,SolarRadiationWatts/m^2,SoftwareType,DateUTC
2013-03-22 00:02:00,8.0,0.0,-100.00,West,269,2.0,5.0,70,0.00,,,0.00,1.000000,,2013-03-22 05:02:00,
2013-03-22 00:32:00,3.0,-3.0,-100.00,West,263,2.0,3.0,76,0.00,,,0.00,1.000000,,2013-03-22 05:32:00,
2013-03-22 00:42:00,3.0,-3.0,-100.00,West,263,2.0,3.0,76,0.00,,,0.00,1.000000,,2013-03-22 05:42:00,
2013-03-22 00:52:00,3.0,-3.0,-100.00,West,263,2.0,3.0,76,0.00,,,0.00,1.000000,,2013-03-22 05:52:00,
2013-03-22 01:02:00,3.0,-3.0,-100.00,West,263,2.0,3.0,76,0.00,,,0.00,1.000000,,2013-03-22 06:02:00,
2013-03-22 01:32:00,0.0,-5.0,-100.00,WSW,243,2.0,5.0,79,0.00,,,0.00,1.000000,,2013-03-22 06:32:00,
2013-03-22 01:43:00,0.0,-5.0,-100.00,WSW,243,2.0,5.0,79,0.00,,,0.00,1.000000,,2013-03-22 06:43:00,
2013-03-22 01:52:00,0.0,-5.0,-100.00,WSW,243,2.0,5.0,79,0.00,,,0.00,1.000000,,2013-03-22 06:52:00,
2013-03-22 02:02:00,0.0,-5.0,-100.00,WSW,243,2.0,5.0,79,0.00,,,0.00,1.000000,,2013-03-22 07:02:00,
2013-03-22 02:32:00,0.0,-5.0,-100.00,WSW,241,3.0,4.0,80,0.00,,,0.00,1.000000,,2013-03-22 07:32:00,
2013-03-22 02:42:00,0.0,-5.0,-100.00,WSW,241,3.0,4.0,80,0.00,,,0.00,1.000000,,2013-03-22 07:42:00,
2013-03-22 02:52:00,0.0,-5.0,-100.00,WSW,241,3.0,4.0,80,0.00,,,0.00,1.000000,,2013-03-22 07:52:00,
2013-03-22 03:03:00,0.0,-5.0,-100.00,WSW,241,3.0,4.0,80,0.00,,,0.00,1.000000,,2013-03-22 08:03:00,
2013-03-22 03:32:00,-3.0,-9.0,-100.00,WSW,238,0.0,3.0,75,0.00,,,0.00,1.000000,,2013-03-22 08:32:00,
2013-03-22 03:42:00,-3.0,-9.0,-100.00,WSW,238,0.0,3.0,75,0.00,,,0.00,1.000000,,2013-03-22 08:42:00,
2013-03-22 03:52:00,-3.0,-9.0,-100.00,WSW,238,0.0,3.0,75,0.00,,,0.00,1.000000,,2013-03-22 08:52:00,
2013-03-22 04:02:00,-3.0,-9.0,-100.00,WSW,238,0.0,3.0,75,0.00,,,0.00,1.000000,,2013-03-22 09:02:00,
2013-03-22 04:33:00,-5.0,-11.0,-100.00,WSW,238,2.0,3.0,75,0.00,,,0.00,1.000000,,2013-03-22 09:33:00,
2013-03-22 04:42:00,-5.0,-11.0,-100.00,WSW,238,2.0,3.0,75,0.00,,,0.00,1.000000,,2013-03-22 09:42:00,
2013-03-22 04:53:00,-5.0,-11.0,-100.00,WSW,238,2.0,3.0,75,0.00,,,0.00,1.000000,,2013-03-22 09:53:00,
2013-03-22 05:03:00,-5.0,-11.0,-100.00,WSW,238,2.0,3.0,75,0.00,,,0.00,1.000000,,2013-03-22 10:03:00,
2013-03-22 05:33:00,-7.0,-13.0,-100.00,WSW,238,1.0,3.0,74,0.00,,,0.00,1.000000,,2013-03-22 10:33:00,
2013-03-22 05:42:00,-7.0,-13.0,-100.00,WSW,238,1.0,3.0,74,0.00,,,0.00,1.000000,,2013-03-22 10:42:00,
2013-03-22 05:52:00,-7.0,-13.0,-100.00,WSW,238,1.0,3.0,74,0.00,,,0.00,1.000000,,2013-03-22 10:52:00,
2013-03-22 06:03:00,-7.0,-13.0,-100.00,WSW,238,1.0,3.0,74,0.00,,,0.00,1.000000,,2013-03-22 11:03:00,
2013-03-22 06:33:00,-9.0,-16.0,-100.00,WSW,238,0.0,2.0,72,0.00,,,0.00,1.000000,,2013-03-22 11:33:00,
2013-03-22 06:42:00,-9.0,-16.0,-100.00,WSW,238,0.0,2.0,72,0.00,,,0.00,1.000000,,2013-03-22 11:42:00,
2013-03-22 06:52:00,-9.0,-16.0,-100.00,WSW,238,0.0,2.0,72,0.00,,,0.00,1.000000,,2013-03-22 11:52:00,
2013-03-22 07:02:00,-9.0,-16.0,-100.00,WSW,238,0.0,2.0,72,0.00,,,0.00,1.000000,,2013-03-22 12:02:00,
2013-03-22 07:32:00,-9.0,-16.0,-100.00,SW,232,3.0,3.0,71,0.00,,,0.00,1.000000,,2013-03-22 12:32:00,
2013-03-22 07:42:00,-9.0,-16.0,-100.00,SW,232,3.0,3.0,71,0.00,,,0.00,1.000000,,2013-03-22 12:42:00,
2013-03-22 07:52:00,-9.0,-16.0,-100.00,SW,232,3.0,3.0,71,0.00,,,0.00,1.000000,,2013-03-22 12:52:00,
2013-03-22 08:02:00,-9.0,-16.0,-100.00,SW,232,3.0,3.0,71,0.00,,,0.00,1.000000,,2013-03-22 13:02:00,
2013-03-22 08:32:00,-6.0,-14.0,-100.00,SW,228,1.0,3.0,68,0.00,,,0.00,29.000000,,2013-03-22 13:32:00,
2013-03-22 08:42:00,-6.0,-14.0,-100.00,SW,228,1.0,3.0,68,0.00,,,0.00,29.000000,,2013-03-22 13:42:00,
2013-03-22 08:52:00,-6.0,-14.0,-100.00,SW,228,1.0,3.0,68,0.00,,,0.00,29.000000,,2013-03-22 13:52:00,
2013-03-22 09:02:00,-6.0,-14.0,-100.00,SW,228,1.0,3.0,68,0.00,,,0.00,29.000000,,2013-03-22 14:02:00,
2013-03-22 09:32:00,3.0,-6.0,-100.00,SW,228,2.0,3.0,66,0.00,,,0.00,178.000000,,2013-03-22 14:32:00,
2013-03-22 09:43:00,3.0,-6.0,-100.00,SW,228,2.0,3.0,66,0.00,,,0.00,178.000000,,2013-03-22 14:43:00,
2013-03-22 09:52:00,3.0,-6.0,-100.00,SW,228,2.0,3.0,66,0.00,,,0.00,178.000000,,2013-03-22 14:52:00,
2013-03-22 10:03:00,3.0,-6.0,-100.00,SW,228,2.0,3.0,66,0.00,,,0.00,178.000000,,2013-03-22 15:03:00,
2013-03-22 10:33:00,15.0,2.0,-100.00,SW,229,1.0,2.0,55,0.00,,,0.00,342.000000,,2013-03-22 15:33:00,
2013-03-22 10:43:00,15.0,2.0,-100.00,SW,229,1.0,2.0,55,0.00,,,0.00,342.000000,,2013-03-22 15:43:00,
2013-03-22 10:53:00,15.0,2.0,-100.00,SW,229,1.0,2.0,55,0.00,,,0.00,342.000000,,2013-03-22 15:53:00,
2013-03-22 11:03:00,15.0,2.0,-100.00,SW,229,1.0,2.0,55,0.00,,,0.00,342.000000,,2013-03-22 16:03:00,
2013-03-22 11:32:00,23.0,6.0,-100.00,SE,128,2.0,4.0,47,0.00,,,0.00,513.000000,,2013-03-22 16:32:00,
2013-03-22 11:42:00,23.0,6.0,-100.00,SE,128,2.0,4.0,47,0.00,,,0.00,513.000000,,2013-03-22 16:42:00,
2013-03-22 11:52:00,23.0,6.0,-100.00,SE,128,2.0,4.0,47,0.00,,,0.00,513.000000,,2013-03-22 16:52:00,
2013-03-22 12:03:00,23.0,6.0,-100.00,SE,128,2.0,4.0,47,0.00,,,0.00,513.000000,,2013-03-22 17:03:00,
2013-03-22 12:33:00,30.0,10.0,-100.00,SE,138,3.0,5.0,42,0.00,,,0.00,643.000000,,2013-03-22 17:33:00,
2013-03-22 12:42:00,30.0,10.0,-100.00,SE,138,3.0,5.0,42,0.00,,,0.00,643.000000,,2013-03-22 17:42:00,
2013-03-22 12:53:00,30.0,10.0,-100.00,SE,138,3.0,5.0,42,0.00,,,0.00,643.000000,,2013-03-22 17:53:00,
2013-03-22 13:02:00,30.0,10.0,-100.00,SE,138,3.0,5.0,42,0.00,,,0.00,643.000000,,2013-03-22 18:02:00,
2013-03-22 13:33:00,33.0,12.0,-100.00,East,92,4.0,9.0,41,0.00,,,0.00,423.000000,,2013-03-22 18:33:00,
2013-03-22 13:42:00,33.0,12.0,-100.00,East,92,4.0,9.0,41,0.00,,,0.00,423.000000,,2013-03-22 18:42:00,
2013-03-22 13:52:00,33.0,12.0,-100.00,East,92,4.0,9.0,41,0.00,,,0.00,423.000000,,2013-03-22 18:52:00,
2013-03-22 14:02:00,33.0,12.0,-100.00,East,92,4.0,9.0,41,0.00,,,0.00,423.000000,,2013-03-22 19:02:00,
2013-03-22 14:33:00,35.0,13.0,-100.00,SE,135,5.0,8.0,40,0.00,,,0.00,439.000000,,2013-03-22 19:33:00,
2013-03-22 14:43:00,35.0,13.0,-100.00,SE,135,5.0,8.0,40,0.00,,,0.00,439.000000,,2013-03-22 19:43:00,
2013-03-22 14:52:00,35.0,13.0,-100.00,SE,135,5.0,8.0,40,0.00,,,0.00,439.000000,,2013-03-22 19:52:00,
2013-03-22 15:02:00,35.0,13.0,-100.00,SE,135,5.0,8.0,40,0.00,,,0.00,439.000000,,2013-03-22 20:02:00,
2013-03-22 15:32:00,36.0,13.0,-100.00,SE,140,5.0,7.0,39,0.00,,,0.00,345.000000,,2013-03-22 20:32:00,
2013-03-22 15:43:00,36.0,13.0,-100.00,SE,140,5.0,7.0,39,0.00,,,0.00,345.000000,,2013-03-22 20:43:00,
2013-03-22 15:52:00,36.0,13.0,-100.00,SE,140,5.0,7.0,39,0.00,,,0.00,345.000000,,2013-03-22 20:52:00,
2013-03-22 16:03:00,36.0,13.0,-100.00,SE,140,5.0,7.0,39,0.00,,,0.00,345.000000,,2013-03-22 21:03:00,
2013-03-22 16:33:00,41.0,15.0,-100.00,NNW,342,2.0,7.0,35,0.00,,,0.00,615.000000,,2013-03-22 21:33:00,
2013-03-22 16:43:00,41.0,15.0,-100.00,NNW,342,2.0,7.0,35,0.00,,,0.00,615.000000,,2013-03-22 21:43:00,
2013-03-22 16:53:00,41.0,15.0,-100.00,NNW,342,2.0,7.0,35,0.00,,,0.00,615.000000,,2013-03-22 21:53:00,
2013-03-22 17:03:00,41.0,15.0,-100.00,NNW,342,2.0,7.0,35,0.00,,,0.00,615.000000,,2013-03-22 22:03:00,
2013-03-22 17:32:00,39.0,14.0,-100.00,NNW,345,2.0,6.0,35,0.00,,,0.00,490.000000,,2013-03-22 22:32:00,
2013-03-22 17:43:00,39.0,14.0,-100.00,NNW,345,2.0,6.0,35,0.00,,,0.00,490.000000,,2013-03-22 22:43:00,
2013-03-22 17:53:00,39.0,14.0,-100.00,NNW,345,2.0,6.0,35,0.00,,,0.00,490.000000,,2013-03-22 22:53:00,
2013-03-22 18:02:00,39.0,14.0,-100.00,NNW,345,2.0,6.0,35,0.00,,,0.00,490.000000,,2013-03-22 23:02:00,
2013-03-22 18:33:00,34.0,13.0,-100.00,WNW,299,4.0,6.0,42,0.00,,,0.00,296.000000,,2013-03-22 23:33:00,
2013-03-22 18:42:00,34.0,13.0,-100.00,WNW,299,4.0,6.0,42,0.00,,,0.00,296.000000,,2013-03-22 23:42:00,
2013-03-22 18:52:00,34.0,13.0,-100.00,WNW,299,4.0,6.0,42,0.00,,,0.00,296.000000,,2013-03-22 23:52:00,
2013-03-22 19:02:00,34.0,13.0,-100.00,WNW,299,4.0,6.0,42,0.00,,,0.00,296.000000,,2013-03-23 00:02:00,
2013-03-22 20:32:00,25.0,13.0,-100.00,NNE,14,5.0,9.0,60,-99.99,,,0.00,9.000000,,2013-03-23 01:32:00,
2013-03-22 20:43:00,25.0,13.0,-100.00,NNE,14,5.0,9.0,60,-99.99,,,0.00,9.000000,,2013-03-23 01:43:00,
2013-03-22 20:52:00,25.0,13.0,-100.00,NNE,14,5.0,9.0,60,-99.99,,,0.00,9.000000,,2013-03-23 01:52:00,
2013-03-22 21:02:00,25.0,13.0,-100.00,NNE,14,5.0,9.0,60,-99.99,,,0.00,9.000000,,2013-03-23 02:02:00,
2013-03-22 21:32:00,24.0,15.0,-100.00,NW,315,3.0,7.0,68,0.00,,,0.00,1.000000,,2013-03-23 02:32:00,
2013-03-22 21:42:00,24.0,15.0,-100.00,NW,315,3.0,7.0,68,0.00,,,0.00,1.000000,,2013-03-23 02:42:00,
2013-03-22 21:52:00,24.0,15.0,-100.00,NW,315,3.0,7.0,68,0.00,,,0.00,1.000000,,2013-03-23 02:52:00,
2013-03-22 22:02:00,24.0,15.0,-100.00,NW,315,3.0,7.0,68,0.00,,,0.00,1.000000,,2013-03-23 03:02:00,
2013-03-22 22:34:00,23.0,15.0,-100.00,WNW,302,4.0,5.0,71,0.00,,,0.00,1.000000,,2013-03-23 03:34:00,
2013-03-22 22:43:00,23.0,15.0,-100.00,WNW,302,4.0,5.0,71,0.00,,,0.00,1.000000,,2013-03-23 03:43:00,
2013-03-22 22:53:00,23.0,15.0,-100.00,WNW,302,4.0,5.0,71,0.00,,,0.00,1.000000,,2013-03-23 03:53:00,
2013-03-22 23:02:00,23.0,15.0,-100.00,WNW,302,4.0,5.0,71,0.00,,,0.00,1.000000,,2013-03-23 04:02:00,
2013-03-22 23:33:00,21.0,14.0,-100.00,NW,313,4.0,6.0,73,0.00,,,0.00,1.000000,,2013-03-23 04:33:00,
2013-03-22 23:43:00,21.0,14.0,-100.00,NW,313,4.0,6.0,73,0.00,,,0.00,1.000000,,2013-03-23 04:43:00,
2013-03-22 23:53:00,21.0,14.0,-100.00,NW,313,4.0,6.0,73,0.00,,,0.00,1.000000,,2013-03-23 04:53:00,